NCAR-RAP Real-Time Weather Data

Output produced by METARs form (12 August 2020  17:56 UTC)
found at http://weather.rap.ucar.edu/surface/
 
KCRW 121654Z 04004KT 10SM SCT035 BKN120 31/19 A3007 RMK AO2 SLP171 T03060194
KCRW 121554Z 14004KT 10SM BKN030 BKN120 29/19 A3007 RMK AO2 SLP173 T02940194
KCRW 121454Z 00000KT 10SM SCT033 BKN150 28/20 A3007 RMK AO2 SLP173 T02830200 58003
KCRW 121354Z 00000KT 10SM BKN150 26/20 A3008 RMK AO2 SLP174 T02610200
KCRW 121254Z 00000KT 10SM FEW070 BKN140 23/20 A3008 RMK AO2 SLP177 T02330200
KCRW 121154Z 00000KT 10SM BKN070 BKN130 21/19 A3008 RMK AO2 SLP177 VLY FG T02110194 10217 20206 51014
KCRW 121054Z 00000KT 10SM FEW000 BKN100 BKN180 21/19 A3007 RMK AO2 SLP173 FG FEW000 T02060194
KCRW 120954Z 10003KT 10SM FEW000 BKN180 21/19 A3006 RMK AO2 SLP168 FG FEW000 T02060194
KCRW 120854Z 00000KT 10SM FEW000 BKN180 21/19 A3004 RMK AO2 SLP163 FG FEW000 T02110194 55002
KCRW 120754Z 03003KT 10SM FEW000 BKN180 21/19 A3004 RMK AO2 SLP161 FG FEW000 T02110194
KCRW 120730Z 00000KT 10SM FEW000 21/20 A3004 RMK AO2 FG FEW000 T02110200
KCRW 120654Z 00000KT 10SM BKN170 21/19 A3003 RMK AO2 SLP159 T02110194
KCRW 120554Z 00000KT 10SM BKN180 22/20 A3005 RMK AO2 SLP164 T02170200 10272 20217 51006
KCRW 120454Z 00000KT 10SM CLR 22/20 A3004 RMK AO2 SLP164 T02170200 402940189
KCRW 120354Z 00000KT 10SM CLR 22/20 A3004 RMK AO2 SLP162 T02220200
KCRW 120254Z 00000KT 10SM FEW150 23/21 A3003 RMK AO2 SLP158 T02280206 51013
KCRW 120154Z 00000KT 10SM FEW150 24/21 A3002 RMK AO2 SLP157 T02390206
KCRW 120054Z 00000KT 10SM FEW160 25/20 A3001 RMK AO2 SLP151 T02500200
KCRW 112354Z 00000KT 10SM FEW250 27/20 A2999 RMK AO2 SLP146 T02720200 10294 20267 55003
KCRW 112254Z 32003KT 10SM SCT150 28/19 A2998 RMK AO2 SLP144 T02830194
KCRW 112154Z VRB03KT 10SM BKN120 28/20 A3000 RMK AO2 SLP148 T02780200
KCRW 112054Z 35003KT 10SM BKN120 28/20 A3000 RMK AO2 SLP150 T02780200 56009
KCRW 111954Z 31005KT 10SM SCT038 BKN100 OVC200 28/19 A3001 RMK AO2 SLP151 T02780194
KCRW 111854Z VRB06KT 10SM SCT038 BKN120 OVC200 28/19 A3002 RMK AO2 SLP156 T02830189
KCRW 111754Z 33005KT 10SM SCT040 BKN120 OVC200 28/18 A3003 RMK AO2 SLP158 T02830178 10289 20206 58002
KCRW 111654Z 33005KT 10SM SCT030 BKN120 BKN200 27/19 A3003 RMK AO2 SLP159 T02720194
KCRW 111554Z 33003KT 10SM SCT028 BKN120 28/19 A3003 RMK AO2 SLP159 T02780194
KCRW 111530Z 00000KT 10SM SCT022 BKN120 27/19 A3003 RMK AO2 T02720194
KCRW 111454Z 25005KT 10SM BKN022 BKN110 27/20 A3003 RMK AO2 SLP160 T02720200 51012
KCRW 111441Z VRB06KT 10SM BKN022 BKN110 27/19 A3003 RMK AO2 T02670194
KCRW 111354Z COR 21005KT 10SM SCT020 SCT110 26/19 A3002 RMK AO2 SLP155 T02560194
KCRW 111254Z 26003KT 10SM SCT020 BKN120 23/19 A3003 RMK AO2 SLP160 T02280189
KCRW 111154Z 00000KT 10SM SCT100 BKN110 21/18 A3000 RMK AO2 SLP147 T02060183 10211 20189 53012
KCRW 111054Z 35003KT 10SM FEW000 FEW100 19/18 A2996 RMK AO2 SLP134 FG FEW000 T01940178
KCRW 110954Z 00000KT 10SM CLR 19/18 A2995 RMK AO2 SLP131 T01940178
KCRW 110854Z 04003KT 10SM CLR 19/18 A2996 RMK AO2 SLP135 T01940183 56005
KCRW 110754Z 00000KT 10SM CLR 20/18 A2997 RMK AO2 SLP136 T02000183
KCRW 110654Z 07004KT 10SM CLR 20/18 A2997 RMK AO2 SLP136 T02000183
KCRW 110554Z 00000KT 10SM CLR 21/18 A2998 RMK AO2 SLP140 T02060183 10300 20206 58005
KCRW 110454Z 00000KT 10SM CLR 22/19 A3000 RMK AO2 SLP147 T02220189 403390172
KCRW 110354Z 00000KT 10SM FEW090 22/18 A3000 RMK AO2 SLP147 T02170183
KCRW 110254Z 00000KT 10SM FEW090 23/18 A2999 RMK AO2 SLP146 T02330183 50009
KCRW 110154Z 00000KT 10SM FEW090 24/18 A2999 RMK AO2 SLP146 T02440178
KCRW 110054Z 00000KT 10SM FEW150 26/18 A2998 RMK AO2 SLP141 T02610178
KCRW 102354Z 22004KT 10SM FEW070 SCT150 30/16 A2996 RMK AO2 SLP137 T03000156 10339 20300 55009
KCRW 102254Z 19007KT 10SM FEW070 SCT150 32/13 A2996 RMK AO2 SLP135 T03170133
KCRW 102154Z 21005KT 10SM SCT070 32/13 A2997 RMK AO2 SLP139 T03220133
KCRW 102054Z 16005KT 10SM SCT075 33/14 A2999 RMK AO2 SLP145 T03280144 58024
KCRW 101954Z 26004KT 10SM SCT065 33/13 A3002 RMK AO2 SLP156 T03280133
KCRW 101854Z VRB05KT 10SM SCT060 33/15 A3005 RMK AO2 SLP165 T03330150